createdAt,value
2022-10-12T00:01:49.168Z,15.57
2022-10-12T00:04:15.963Z,15.32
2022-10-12T00:06:42.599Z,14.95
2022-10-12T00:09:09.146Z,15.68
2022-10-12T00:11:35.695Z,15.70
2022-10-12T00:14:02.127Z,16.33
2022-10-12T00:16:28.574Z,17.45
2022-10-12T00:18:58.334Z,16.00
2022-10-12T00:21:28.001Z,16.33
2022-10-12T00:24:01.589Z,16.02
2022-10-12T00:26:29.830Z,15.60
2022-10-12T00:29:02.021Z,15.77
2022-10-12T00:31:29.572Z,14.95
2022-10-12T00:33:56.302Z,16.83
2022-10-12T00:36:33.628Z,15.10
2022-10-12T00:39:00.761Z,14.75
2022-10-12T00:41:31.578Z,15.45
2022-10-12T00:46:39.262Z,15.40
2022-10-12T00:49:17.449Z,16.35
2022-10-12T00:51:53.413Z,17.85
2022-10-12T00:54:26.130Z,14.73
2022-10-12T00:56:55.232Z,15.75
2022-10-12T00:59:28.087Z,16.88
2022-10-12T01:01:56.464Z,16.15
2022-10-12T01:04:26.328Z,15.57
2022-10-12T01:06:53.174Z,15.27
2022-10-12T01:09:21.315Z,15.02
2022-10-12T01:11:49.389Z,15.73
2022-10-12T01:14:16.969Z,16.98
2022-10-12T01:16:43.304Z,15.52
2022-10-12T01:19:47.366Z,17.60
2022-10-12T01:22:22.397Z,18.45
2022-10-12T01:25:24.210Z,18.08
2022-10-12T01:28:02.464Z,17.30
2022-10-12T01:30:34.910Z,17.45
2022-10-12T01:33:17.599Z,18.92
2022-10-12T01:36:05.183Z,19.00
2022-10-12T01:38:45.554Z,20.08
2022-10-12T01:41:47.006Z,18.55
2022-10-12T01:44:23.209Z,18.38
2022-10-12T01:46:51.796Z,18.10
2022-10-12T01:49:25.119Z,17.70
2022-10-12T01:52:12.190Z,18.10
2022-10-12T01:54:47.561Z,16.73
2022-10-12T01:57:47.352Z,18.17
2022-10-12T02:00:16.252Z,17.67
2022-10-12T02:02:55.208Z,17.38
2022-10-12T02:05:42.282Z,16.05
2022-10-12T02:08:18.469Z,16.85
2022-10-12T02:10:54.079Z,16.35
2022-10-12T02:13:24.533Z,16.73
2022-10-12T02:15:53.178Z,16.75
2022-10-12T02:18:24.638Z,16.83
2022-10-12T02:20:54.197Z,16.52
2022-10-12T02:23:23.830Z,17.65
2022-10-12T02:25:55.498Z,17.55
2022-10-12T02:28:25.953Z,17.33
2022-10-12T02:31:22.843Z,17.73
2022-10-12T02:34:04.419Z,18.27
2022-10-12T02:36:49.929Z,18.83
2022-10-12T02:39:34.145Z,17.92
2022-10-12T02:42:07.809Z,19.27
2022-10-12T02:44:39.808Z,19.30
2022-10-12T02:47:09.279Z,15.57
2022-10-12T02:49:36.555Z,17.25
2022-10-12T02:52:05.983Z,17.40
2022-10-12T02:54:32.698Z,17.20
2022-10-12T02:57:01.364Z,16.83
2022-10-12T02:59:27.850Z,17.17
2022-10-12T03:01:54.555Z,17.60
2022-10-12T03:04:20.998Z,16.50
2022-10-12T03:06:48.069Z,17.77
2022-10-12T03:09:14.574Z,17.88
2022-10-12T03:11:40.915Z,18.65
2022-10-12T03:14:07.276Z,19.85
2022-10-12T03:16:33.794Z,18.25
2022-10-12T03:19:00.205Z,20.60
2022-10-12T03:21:27.731Z,18.88
2022-10-12T03:23:54.534Z,19.02
2022-10-12T03:26:23.967Z,18.20
2022-10-12T03:28:50.590Z,18.90
2022-10-12T03:31:20.166Z,18.95
2022-10-12T03:33:46.507Z,18.83
2022-10-12T03:36:12.845Z,18.45
2022-10-12T03:38:39.606Z,17.70
2022-10-12T03:41:06.944Z,17.80
2022-10-12T03:43:35.263Z,18.13
2022-10-12T03:46:01.690Z,18.98
2022-10-12T03:48:28.141Z,17.00
2022-10-12T03:50:54.473Z,19.58
2022-10-12T03:53:20.878Z,19.52
2022-10-12T03:55:47.449Z,19.27
2022-10-12T03:58:14.439Z,17.65
2022-10-12T04:00:40.930Z,17.15
2022-10-12T04:03:07.415Z,17.38
2022-10-12T04:05:34.004Z,17.63
2022-10-12T04:08:00.558Z,16.88
2022-10-12T04:10:27.020Z,17.55
2022-10-12T04:12:53.989Z,18.25
2022-10-12T04:15:23.739Z,19.20
2022-10-12T04:17:50.529Z,18.20
2022-10-12T04:20:17.166Z,18.83
2022-10-12T04:22:43.719Z,18.60
2022-10-12T04:25:11.439Z,17.75
2022-10-12T04:27:38.054Z,18.40
2022-10-12T04:30:04.980Z,17.60
2022-10-12T04:32:31.344Z,17.30
2022-10-12T04:34:58.048Z,17.35
2022-10-12T04:37:27.069Z,18.08
2022-10-12T04:39:53.588Z,16.98
2022-10-12T04:42:25.695Z,18.17
2022-10-12T04:44:53.408Z,15.73
2022-10-12T04:47:19.855Z,17.30
2022-10-12T04:49:46.334Z,16.80
2022-10-12T04:52:12.749Z,18.13
2022-10-12T04:54:39.335Z,17.08
2022-10-12T04:57:06.102Z,18.50
2022-10-12T04:59:33.032Z,17.38
2022-10-12T05:01:59.734Z,18.73
2022-10-12T05:04:26.333Z,17.27
2022-10-12T05:06:52.943Z,18.25
2022-10-12T05:09:19.286Z,17.67
2022-10-12T05:11:46.980Z,18.98
2022-10-12T05:14:13.362Z,18.30
2022-10-12T05:16:40.110Z,19.65
2022-10-12T05:19:08.893Z,19.27
2022-10-12T05:21:35.723Z,20.50
2022-10-12T05:24:02.346Z,19.27
2022-10-12T05:26:28.977Z,21.58
2022-10-12T05:28:55.412Z,22.48
2022-10-12T05:31:22.015Z,21.15
2022-10-12T05:33:50.699Z,22.95
2022-10-12T05:36:17.655Z,23.85
2022-10-12T05:38:44.050Z,22.00
2022-10-12T05:41:10.488Z,21.85
2022-10-12T05:43:36.963Z,21.15
2022-10-12T05:46:03.324Z,23.13
2022-10-12T05:48:29.644Z,22.17
2022-10-12T05:50:56.079Z,22.65
2022-10-12T05:53:23.467Z,21.38
2022-10-12T05:55:57.785Z,23.02
2022-10-12T05:58:29.603Z,21.00
2022-10-12T06:01:07.893Z,23.15
2022-10-12T06:03:35.164Z,23.00
2022-10-12T06:06:03.165Z,24.67
2022-10-12T06:08:31.016Z,23.63
2022-10-12T06:10:57.454Z,21.92
2022-10-12T06:13:24.115Z,21.67
2022-10-12T06:15:50.881Z,24.30
2022-10-12T06:18:18.127Z,23.05
2022-10-12T06:21:04.041Z,23.38
2022-10-12T06:23:38.852Z,23.35
2022-10-12T06:26:05.326Z,23.40
2022-10-12T06:28:31.832Z,22.92
2022-10-12T06:31:00.417Z,23.00
2022-10-12T06:33:28.168Z,24.27
2022-10-12T06:35:55.344Z,22.02
2022-10-12T06:38:22.183Z,22.08
2022-10-12T06:40:48.585Z,20.67
2022-10-12T06:43:16.408Z,21.10
2022-10-12T06:45:42.757Z,21.83
2022-10-12T06:48:12.850Z,21.40
2022-10-12T06:50:41.281Z,22.25
2022-10-12T06:53:07.714Z,22.02
2022-10-12T06:55:34.294Z,23.10
2022-10-12T06:58:00.761Z,22.33
2022-10-12T07:00:27.497Z,21.92
2022-10-12T07:02:55.049Z,21.25
2022-10-12T07:05:23.514Z,21.17
2022-10-12T07:07:49.957Z,20.95
2022-10-12T07:10:19.341Z,18.25
2022-10-12T07:12:45.773Z,18.88
2022-10-12T07:15:12.584Z,17.05
2022-10-12T07:17:39.304Z,17.52
2022-10-12T07:20:06.401Z,18.10
2022-10-12T07:22:33.014Z,18.13
2022-10-12T07:24:59.385Z,17.77
2022-10-12T07:27:25.818Z,17.92
2022-10-12T07:29:52.281Z,17.98
2022-10-12T07:32:18.611Z,18.52
2022-10-12T07:34:47.484Z,19.00
2022-10-12T07:37:13.878Z,18.85
2022-10-12T07:39:40.299Z,19.00
2022-10-12T07:42:07.058Z,19.08
2022-10-12T07:44:33.872Z,17.85
2022-10-12T07:47:01.274Z,17.77
2022-10-12T07:49:29.426Z,18.00
2022-10-12T07:51:56.094Z,19.17
2022-10-12T07:54:29.018Z,16.20
2022-10-12T07:56:56.356Z,18.00
2022-10-12T07:59:24.266Z,16.92
2022-10-12T08:01:50.715Z,18.55
2022-10-12T08:04:17.325Z,19.13
2022-10-12T08:06:44.189Z,19.10
2022-10-12T08:09:10.859Z,19.88
2022-10-12T08:11:41.339Z,19.08
2022-10-12T08:14:15.692Z,18.13
2022-10-12T08:16:47.174Z,17.08
2022-10-12T08:19:14.343Z,17.38
2022-10-12T08:21:41.376Z,19.67
2022-10-12T08:24:12.936Z,20.20
2022-10-12T08:26:39.477Z,20.55
2022-10-12T08:29:07.209Z,20.77
2022-10-12T08:31:34.387Z,20.52
2022-10-12T08:34:04.141Z,16.35
2022-10-12T08:36:32.491Z,20.70
2022-10-12T08:38:59.361Z,19.65
2022-10-12T08:41:52.087Z,18.33
2022-10-12T08:44:50.007Z,17.90
2022-10-12T08:47:34.496Z,16.98
2022-10-12T08:50:02.917Z,17.13
2022-10-12T08:52:41.490Z,15.80
2022-10-12T08:55:21.573Z,17.80
2022-10-12T08:57:49.953Z,16.90
2022-10-12T09:00:17.276Z,17.20
2022-10-12T09:03:17.168Z,17.77
2022-10-12T09:05:54.493Z,17.00
2022-10-12T09:08:46.867Z,17.00
2022-10-12T09:11:29.117Z,17.00
2022-10-12T09:14:10.249Z,15.80
2022-10-12T09:16:44.306Z,13.95
2022-10-12T09:19:20.404Z,14.75
2022-10-12T09:21:48.887Z,13.23
2022-10-12T09:24:37.058Z,12.27
2022-10-12T09:27:14.729Z,14.27
2022-10-12T09:29:45.008Z,12.60
2022-10-12T09:32:20.312Z,13.65
2022-10-12T09:34:49.205Z,13.43
2022-10-12T09:37:20.792Z,12.05
2022-10-12T09:39:47.858Z,13.88
2022-10-12T09:42:14.436Z,12.93
2022-10-12T09:44:46.187Z,12.93
2022-10-12T09:47:30.636Z,12.23
2022-10-12T09:50:01.793Z,12.98
2022-10-12T09:52:39.480Z,12.85
2022-10-12T09:55:15.325Z,15.23
2022-10-12T09:57:53.800Z,13.95
2022-10-12T10:00:34.766Z,13.98
2022-10-12T10:03:03.824Z,14.27
2022-10-12T10:05:35.925Z,12.85
2022-10-12T10:08:15.118Z,13.02
2022-10-12T10:10:55.965Z,11.82
2022-10-12T10:13:37.542Z,14.15
2022-10-12T10:16:08.212Z,13.85
2022-10-12T10:18:41.732Z,14.68
2022-10-12T10:21:10.356Z,14.70
2022-10-12T10:23:50.123Z,12.77
2022-10-12T10:26:19.887Z,12.97
2022-10-12T10:28:48.993Z,13.77
2022-10-12T10:31:16.401Z,12.73
2022-10-12T10:33:45.018Z,12.45
2022-10-12T10:36:28.324Z,14.68
2022-10-12T10:39:04.122Z,12.77
2022-10-12T10:41:38.768Z,12.73
2022-10-12T10:44:22.062Z,12.35
2022-10-12T10:46:48.811Z,14.23
2022-10-12T10:49:33.808Z,14.57
2022-10-12T10:52:02.492Z,14.13
2022-10-12T10:54:32.020Z,13.65
2022-10-12T10:57:13.948Z,14.93
2022-10-12T10:59:46.365Z,15.30
2022-10-12T11:02:36.388Z,14.80
2022-10-12T11:05:21.369Z,12.88
2022-10-12T11:07:57.395Z,13.30
2022-10-12T11:10:47.224Z,12.40
2022-10-12T11:13:27.180Z,15.20
2022-10-12T11:16:18.273Z,14.13
2022-10-12T11:18:56.275Z,14.68
2022-10-12T11:21:31.133Z,14.20
2022-10-12T11:24:13.665Z,14.60
2022-10-12T11:26:56.770Z,14.23
2022-10-12T11:29:23.624Z,16.02
2022-10-12T11:31:54.182Z,15.15
2022-10-12T11:37:18.332Z,14.40
2022-10-12T11:39:47.115Z,12.52
2022-10-12T11:42:24.514Z,14.38
2022-10-12T11:44:51.620Z,13.88
2022-10-12T11:47:36.139Z,12.52
2022-10-12T11:50:20.898Z,12.82
2022-10-12T11:52:50.090Z,12.27
2022-10-12T11:55:31.974Z,11.23
2022-10-12T11:58:07.622Z,10.60
2022-10-12T12:00:59.724Z,13.25
2022-10-12T12:03:33.888Z,11.80
2022-10-12T12:06:28.565Z,12.98
2022-10-12T12:08:54.836Z,10.10
2022-10-12T12:11:26.194Z,12.45
2022-10-12T12:14:22.193Z,10.07
2022-10-12T12:16:49.600Z,10.57
2022-10-12T12:19:36.935Z,10.95
2022-10-12T12:22:34.232Z,11.38
2022-10-12T12:25:12.362Z,10.60
2022-10-12T12:27:47.843Z,10.63
2022-10-12T12:30:22.821Z,10.25
2022-10-12T12:33:27.325Z,10.45
2022-10-12T12:36:06.532Z,12.20
2022-10-12T12:38:39.598Z,10.77
2022-10-12T12:41:12.510Z,9.82
2022-10-12T12:44:00.831Z,9.98
2022-10-12T12:46:52.281Z,10.70
2022-10-12T12:49:38.826Z,11.25
2022-10-12T12:52:13.440Z,9.32
2022-10-12T12:55:21.399Z,10.75
2022-10-12T12:58:06.168Z,9.75
2022-10-12T13:01:10.867Z,11.20
2022-10-12T13:04:05.491Z,9.65
2022-10-12T13:06:33.391Z,10.70
2022-10-12T13:09:28.671Z,10.30
2022-10-12T13:12:18.564Z,10.20
2022-10-12T13:15:21.341Z,11.23
2022-10-12T13:17:50.912Z,10.35
2022-10-12T13:20:25.265Z,11.40
2022-10-12T13:22:54.621Z,10.77
2022-10-12T13:25:33.262Z,10.00
2022-10-12T13:28:02.665Z,10.10
2022-10-12T13:30:50.113Z,9.20
2022-10-12T13:33:32.470Z,9.48
2022-10-12T13:36:08.974Z,10.13
2022-10-12T13:38:37.115Z,9.93
2022-10-12T13:41:16.205Z,10.88
2022-10-12T13:43:48.330Z,10.43
2022-10-12T13:46:44.966Z,9.80
2022-10-12T13:49:32.602Z,11.13
2022-10-12T13:52:17.238Z,9.40
2022-10-12T13:54:47.841Z,10.05
2022-10-12T13:59:49.868Z,8.88
2022-10-12T14:02:21.887Z,9.77
2022-10-12T14:04:48.759Z,10.07
2022-10-12T14:07:20.717Z,8.95
2022-10-12T14:09:56.238Z,9.88
2022-10-12T14:12:25.609Z,8.57
2022-10-12T14:14:53.032Z,9.02
2022-10-12T14:17:20.622Z,9.38
2022-10-12T14:19:54.195Z,9.00
2022-10-12T14:22:27.704Z,9.82
2022-10-12T14:25:31.936Z,10.10
2022-10-12T14:28:04.514Z,11.25
2022-10-12T14:30:33.142Z,11.77
2022-10-12T14:33:16.473Z,10.73
2022-10-12T14:35:48.072Z,10.90
2022-10-12T14:38:36.288Z,9.68
2022-10-12T14:41:33.756Z,9.82
2022-10-12T14:44:14.223Z,8.82
2022-10-12T14:46:43.949Z,8.10
2022-10-12T14:49:38.489Z,10.77
2022-10-12T14:52:07.445Z,10.27
2022-10-12T14:54:34.271Z,9.75
2022-10-12T14:57:14.027Z,10.63
2022-10-12T14:59:40.800Z,10.18
2022-10-12T15:02:17.917Z,10.70
2022-10-12T15:04:44.886Z,10.85
2022-10-12T15:07:17.122Z,9.10
2022-10-12T15:09:44.255Z,9.20
2022-10-12T15:12:13.219Z,10.93
2022-10-12T15:14:42.549Z,10.95
2022-10-12T15:17:14.916Z,11.98
2022-10-12T15:19:43.738Z,11.52
2022-10-12T15:22:15.624Z,9.10
2022-10-12T15:24:44.540Z,10.82
2022-10-12T15:27:12.801Z,10.52
2022-10-12T15:29:43.288Z,9.95
2022-10-12T15:32:14.387Z,9.27
2022-10-12T15:34:44.672Z,12.27
2022-10-12T15:37:11.241Z,9.93
2022-10-12T15:39:37.916Z,9.05
2022-10-12T15:42:04.667Z,10.60
2022-10-12T15:44:31.270Z,10.23
2022-10-12T15:46:58.141Z,9.88
2022-10-12T15:49:24.528Z,10.60
2022-10-12T15:51:57.392Z,10.35
2022-10-12T15:54:24.020Z,9.82
2022-10-12T15:56:50.478Z,8.93
2022-10-12T15:59:16.811Z,8.65
2022-10-12T16:01:43.344Z,8.75
2022-10-12T16:04:13.705Z,9.18
2022-10-12T16:06:40.341Z,8.20
2022-10-12T16:09:07.150Z,8.52
2022-10-12T16:11:33.539Z,7.47
2022-10-12T16:14:00.413Z,7.97
2022-10-12T16:16:26.794Z,8.00
2022-10-12T16:18:53.104Z,8.77
2022-10-12T16:21:19.670Z,7.07
2022-10-12T16:23:46.088Z,7.68
2022-10-12T16:26:17.056Z,8.93
2022-10-12T16:28:43.627Z,8.88
2022-10-12T16:31:12.385Z,9.25
2022-10-12T16:33:39.597Z,8.10
2022-10-12T16:36:15.378Z,8.98
2022-10-12T16:38:42.993Z,8.50
2022-10-12T16:41:14.716Z,8.65
2022-10-12T16:43:42.023Z,8.38
2022-10-12T16:46:08.899Z,8.88
2022-10-12T16:48:36.493Z,8.80
2022-10-12T16:51:07.871Z,8.40
2022-10-12T16:53:34.512Z,9.05
2022-10-12T16:56:01.072Z,8.80
2022-10-12T16:58:27.431Z,8.82
2022-10-12T17:00:53.913Z,9.15
2022-10-12T17:03:20.592Z,9.20
2022-10-12T17:05:47.036Z,9.57
2022-10-12T17:08:15.554Z,10.02
2022-10-12T17:10:44.142Z,9.88
2022-10-12T17:13:12.132Z,9.80
2022-10-12T17:15:39.753Z,10.93
2022-10-12T17:18:06.401Z,11.38
2022-10-12T17:20:32.867Z,11.30
2022-10-12T17:22:59.299Z,11.60
2022-10-12T17:25:25.702Z,10.40
2022-10-12T17:27:52.020Z,10.00
2022-10-12T17:30:18.519Z,10.65
2022-10-12T17:32:44.952Z,11.57
2022-10-12T17:35:11.306Z,11.38
2022-10-12T17:37:37.904Z,11.27
2022-10-12T17:40:04.670Z,12.52
2022-10-12T17:42:31.635Z,11.02
2022-10-12T17:44:59.087Z,11.90
2022-10-12T17:47:26.474Z,12.68
2022-10-12T17:49:52.864Z,11.35
2022-10-12T17:52:19.551Z,12.43
2022-10-12T17:54:46.147Z,12.15
2022-10-12T17:57:12.557Z,11.00
2022-10-12T17:59:39.053Z,12.32
2022-10-12T18:02:09.303Z,12.68
2022-10-12T18:07:02.278Z,11.95
2022-10-12T18:09:28.731Z,11.77
2022-10-12T18:11:55.465Z,13.23
2022-10-12T18:14:22.102Z,12.50
2022-10-12T18:16:49.673Z,12.55
2022-10-12T18:19:16.161Z,12.50
2022-10-12T18:21:42.543Z,13.77
2022-10-12T18:24:15.675Z,12.93
2022-10-12T18:26:44.862Z,13.02
2022-10-12T18:29:11.315Z,14.13
2022-10-12T18:31:38.803Z,13.45
2022-10-12T18:34:05.255Z,15.45
2022-10-12T18:36:31.703Z,14.55
2022-10-12T18:39:01.897Z,13.30
2022-10-12T18:41:28.641Z,13.85
2022-10-12T18:43:57.401Z,15.48
2022-10-12T18:46:25.334Z,15.68
2022-10-12T18:48:51.685Z,15.18
2022-10-12T18:51:25.962Z,14.90
2022-10-12T18:53:52.733Z,14.15
2022-10-12T18:56:20.327Z,16.15
2022-10-12T18:58:47.412Z,15.88
2022-10-12T19:01:16.917Z,15.82
2022-10-12T19:03:43.873Z,17.10
2022-10-12T19:06:14.172Z,15.35
2022-10-12T19:08:40.778Z,14.95
2022-10-12T19:11:08.337Z,15.20
2022-10-12T19:13:38.817Z,14.75
2022-10-12T19:16:11.268Z,15.20
2022-10-12T19:18:38.921Z,15.63
2022-10-12T19:21:17.982Z,14.70
2022-10-12T19:23:45.512Z,16.48
2022-10-12T19:26:17.333Z,16.27
2022-10-12T19:28:44.817Z,15.98
2022-10-12T19:31:17.558Z,16.13
2022-10-12T19:33:44.287Z,14.80
2022-10-12T19:36:12.097Z,15.85
2022-10-12T19:38:39.239Z,16.45
2022-10-12T19:41:07.377Z,16.02
2022-10-12T19:43:34.856Z,16.23
2022-10-12T19:46:09.342Z,16.88
2022-10-12T19:48:37.668Z,15.82
2022-10-12T19:51:07.507Z,15.80
2022-10-12T19:53:34.759Z,16.77
2022-10-12T19:56:07.471Z,16.00
2022-10-12T19:58:36.067Z,15.60
2022-10-12T20:01:06.384Z,15.20
2022-10-12T20:03:34.489Z,16.40
2022-10-12T20:06:06.781Z,16.13
2022-10-12T20:08:34.220Z,16.63
2022-10-12T20:11:05.425Z,16.92
2022-10-12T20:13:32.268Z,16.52
2022-10-12T20:15:58.957Z,16.40
2022-10-12T20:18:27.053Z,16.70
2022-10-12T20:20:53.662Z,18.13
2022-10-12T20:23:22.770Z,16.98
2022-10-12T20:25:52.111Z,15.60
2022-10-12T20:28:20.038Z,18.48
2022-10-12T20:30:47.232Z,15.60
2022-10-12T20:33:14.845Z,16.63
2022-10-12T20:35:48.829Z,16.25
2022-10-12T20:38:16.570Z,16.25
2022-10-12T20:40:43.082Z,17.85
2022-10-12T20:43:11.696Z,17.08
2022-10-12T20:45:38.524Z,15.60
2022-10-12T20:48:06.188Z,17.02
2022-10-12T20:50:33.308Z,15.52
2022-10-12T20:53:01.003Z,16.42
2022-10-12T20:55:27.751Z,17.65
2022-10-12T20:57:54.394Z,16.25
2022-10-12T21:00:20.930Z,16.33
2022-10-12T21:02:47.387Z,17.38
2022-10-12T21:05:14.844Z,16.92
2022-10-12T21:07:42.784Z,16.80
2022-10-12T21:10:09.949Z,16.58
2022-10-12T21:12:36.333Z,16.15
2022-10-12T21:15:02.956Z,17.38
2022-10-12T21:17:29.307Z,17.42
2022-10-12T21:19:55.863Z,15.52
2022-10-12T21:22:22.273Z,16.58
2022-10-12T21:24:49.478Z,16.13
2022-10-12T21:27:16.982Z,15.55
2022-10-12T21:29:44.446Z,16.38
2022-10-12T21:32:10.851Z,16.60
2022-10-12T21:34:37.523Z,16.10
2022-10-12T21:37:03.984Z,16.10
2022-10-12T21:39:30.797Z,16.30
2022-10-12T21:41:57.153Z,16.92
2022-10-12T21:44:23.506Z,16.23
2022-10-12T21:46:50.991Z,16.20
2022-10-12T21:49:17.358Z,16.17
2022-10-12T21:51:43.752Z,14.50
2022-10-12T21:54:12.769Z,15.82
2022-10-12T21:56:39.216Z,15.20
2022-10-12T21:59:05.896Z,15.88
2022-10-12T22:01:37.504Z,15.25
2022-10-12T22:04:07.700Z,15.48
2022-10-12T22:06:35.585Z,15.25
2022-10-12T22:09:06.050Z,15.30
2022-10-12T22:11:35.388Z,15.60
2022-10-12T22:14:04.686Z,15.35
2022-10-12T22:16:31.551Z,16.80
2022-10-12T22:19:00.964Z,16.75
2022-10-12T22:21:28.248Z,15.77
2022-10-12T22:23:54.606Z,16.88
2022-10-12T22:26:22.753Z,16.58
2022-10-12T22:28:50.566Z,16.75
2022-10-12T22:31:20.295Z,17.67
2022-10-12T22:33:47.347Z,16.65
2022-10-12T22:36:15.153Z,18.35
2022-10-12T22:38:42.203Z,17.38
2022-10-12T22:41:13.854Z,16.63
2022-10-12T22:43:40.587Z,16.98
2022-10-12T22:46:08.904Z,16.45
2022-10-12T22:48:37.642Z,16.42
2022-10-12T22:51:05.642Z,15.68
2022-10-12T22:53:32.473Z,16.13
2022-10-12T22:56:04.093Z,16.05
2022-10-12T22:58:30.912Z,16.85
2022-10-12T23:01:08.367Z,16.63
2022-10-12T23:03:35.521Z,17.00
2022-10-12T23:06:02.216Z,16.13
2022-10-12T23:08:29.034Z,16.38
2022-10-12T23:10:56.537Z,17.35
2022-10-12T23:13:22.959Z,17.45
2022-10-12T23:15:49.699Z,16.63
2022-10-12T23:18:16.098Z,17.15
2022-10-12T23:20:42.530Z,15.98
2022-10-12T23:23:08.983Z,14.40
2022-10-12T23:25:35.271Z,15.85
2022-10-12T23:28:01.630Z,16.08
2022-10-12T23:30:28.169Z,15.90
2022-10-12T23:32:54.711Z,16.20
2022-10-12T23:35:21.009Z,16.58
2022-10-12T23:37:47.404Z,17.02
2022-10-12T23:40:16.659Z,16.98
2022-10-12T23:42:43.188Z,16.40
2022-10-12T23:45:09.706Z,17.15
2022-10-12T23:47:36.074Z,16.52
2022-10-12T23:50:04.043Z,16.85
2022-10-12T23:52:31.627Z,18.40
2022-10-12T23:54:57.968Z,17.20
2022-10-12T23:57:45.743Z,18.50
